sensor_id;sensor_type;location;lat;lon;timestamp;temperature;humidity
52791;DHT22;41253;46.856;-71.574;2022-09-09T00:00:53;17.20;99.90
52791;DHT22;41253;46.856;-71.574;2022-09-09T00:03:29;17.10;99.90
52791;DHT22;41253;46.856;-71.574;2022-09-09T00:06:08;17.10;99.90
52791;DHT22;41253;46.856;-71.574;2022-09-09T00:08:51;17.10;99.90
52791;DHT22;41253;46.856;-71.574;2022-09-09T00:11:28;17.00;99.90
52791;DHT22;41253;46.856;-71.574;2022-09-09T00:14:00;16.90;99.90
52791;DHT22;41253;46.856;-71.574;2022-09-09T00:16:32;16.70;99.90
52791;DHT22;41253;46.856;-71.574;2022-09-09T00:19:27;16.70;99.90
52791;DHT22;41253;46.856;-71.574;2022-09-09T00:22:00;16.70;99.90
52791;DHT22;41253;46.856;-71.574;2022-09-09T00:24:46;16.70;99.90
52791;DHT22;41253;46.856;-71.574;2022-09-09T00:27:31;16.60;99.90
52791;DHT22;41253;46.856;-71.574;2022-09-09T00:30:19;16.50;99.90
52791;DHT22;41253;46.856;-71.574;2022-09-09T00:32:50;16.60;99.90
52791;DHT22;41253;46.856;-71.574;2022-09-09T00:37:52;16.40;99.90
52791;DHT22;41253;46.856;-71.574;2022-09-09T00:40:45;16.30;99.90
52791;DHT22;41253;46.856;-71.574;2022-09-09T00:43:32;16.20;99.90
52791;DHT22;41253;46.856;-71.574;2022-09-09T00:59:51;16.20;99.90
52791;DHT22;41253;46.856;-71.574;2022-09-09T01:02:27;16.20;99.90
52791;DHT22;41253;46.856;-71.574;2022-09-09T01:04:56;16.20;99.90
52791;DHT22;41253;46.856;-71.574;2022-09-09T01:07:27;16.20;99.90
52791;DHT22;41253;46.856;-71.574;2022-09-09T01:09:58;16.20;99.90
52791;DHT22;41253;46.856;-71.574;2022-09-09T01:12:43;16.20;99.90
52791;DHT22;41253;46.856;-71.574;2022-09-09T01:15:14;16.30;99.90
52791;DHT22;41253;46.856;-71.574;2022-09-09T01:18:10;16.30;99.90
52791;DHT22;41253;46.856;-71.574;2022-09-09T01:20:47;16.30;99.90
52791;DHT22;41253;46.856;-71.574;2022-09-09T01:26:13;16.30;99.90
52791;DHT22;41253;46.856;-71.574;2022-09-09T01:28:47;16.40;99.90
52791;DHT22;41253;46.856;-71.574;2022-09-09T01:31:18;16.30;99.90
52791;DHT22;41253;46.856;-71.574;2022-09-09T01:33:46;16.30;99.90
52791;DHT22;41253;46.856;-71.574;2022-09-09T01:36:42;16.20;99.90
52791;DHT22;41253;46.856;-71.574;2022-09-09T01:39:10;16.30;99.90
52791;DHT22;41253;46.856;-71.574;2022-09-09T01:41:38;16.30;99.90
52791;DHT22;41253;46.856;-71.574;2022-09-09T01:44:05;16.40;99.90
52791;DHT22;41253;46.856;-71.574;2022-09-09T01:46:33;16.30;99.90
52791;DHT22;41253;46.856;-71.574;2022-09-09T01:49:02;16.30;99.90
52791;DHT22;41253;46.856;-71.574;2022-09-09T01:51:29;16.20;99.90
52791;DHT22;41253;46.856;-71.574;2022-09-09T01:53:55;16.20;99.90
52791;DHT22;41253;46.856;-71.574;2022-09-09T01:56:40;16.20;99.90
52791;DHT22;41253;46.856;-71.574;2022-09-09T02:04:39;16.10;99.90
52791;DHT22;41253;46.856;-71.574;2022-09-09T02:10:10;15.90;99.90
52791;DHT22;41253;46.856;-71.574;2022-09-09T02:12:46;15.90;99.90
52791;DHT22;41253;46.856;-71.574;2022-09-09T02:15:30;15.90;99.90
52791;DHT22;41253;46.856;-71.574;2022-09-09T02:17:59;15.80;99.90
52791;DHT22;41253;46.856;-71.574;2022-09-09T02:20:29;15.80;99.90
52791;DHT22;41253;46.856;-71.574;2022-09-09T02:22:59;15.70;99.90
52791;DHT22;41253;46.856;-71.574;2022-09-09T02:25:28;15.80;99.90
52791;DHT22;41253;46.856;-71.574;2022-09-09T02:27:58;15.70;99.90
52791;DHT22;41253;46.856;-71.574;2022-09-09T02:30:25;15.60;99.90
52791;DHT22;41253;46.856;-71.574;2022-09-09T02:32:56;15.50;99.90
52791;DHT22;41253;46.856;-71.574;2022-09-09T02:35:24;15.50;99.90
52791;DHT22;41253;46.856;-71.574;2022-09-09T02:37:54;15.50;99.90
52791;DHT22;41253;46.856;-71.574;2022-09-09T02:40:22;15.50;99.90
52791;DHT22;41253;46.856;-71.574;2022-09-09T02:42:49;15.50;99.90
52791;DHT22;41253;46.856;-71.574;2022-09-09T02:45:20;15.40;99.90
52791;DHT22;41253;46.856;-71.574;2022-09-09T02:50:32;15.40;99.90
52791;DHT22;41253;46.856;-71.574;2022-09-09T02:55:41;15.30;99.90
52791;DHT22;41253;46.856;-71.574;2022-09-09T02:58:12;15.20;99.90
52791;DHT22;41253;46.856;-71.574;2022-09-09T03:00:39;15.20;99.90
52791;DHT22;41253;46.856;-71.574;2022-09-09T03:03:09;15.10;99.90
52791;DHT22;41253;46.856;-71.574;2022-09-09T03:05:36;15.00;99.90
52791;DHT22;41253;46.856;-71.574;2022-09-09T03:08:03;15.00;99.90
52791;DHT22;41253;46.856;-71.574;2022-09-09T03:10:29;15.00;99.90
52791;DHT22;41253;46.856;-71.574;2022-09-09T03:12:56;14.90;99.90
52791;DHT22;41253;46.856;-71.574;2022-09-09T03:15:22;14.90;99.90
52791;DHT22;41253;46.856;-71.574;2022-09-09T03:17:49;14.80;99.90
52791;DHT22;41253;46.856;-71.574;2022-09-09T03:20:15;14.70;99.90
52791;DHT22;41253;46.856;-71.574;2022-09-09T03:22:41;14.70;99.90
52791;DHT22;41253;46.856;-71.574;2022-09-09T03:25:09;14.60;99.90
52791;DHT22;41253;46.856;-71.574;2022-09-09T03:27:36;14.70;99.90
52791;DHT22;41253;46.856;-71.574;2022-09-09T03:30:02;14.60;99.90
52791;DHT22;41253;46.856;-71.574;2022-09-09T03:32:29;14.50;99.90
52791;DHT22;41253;46.856;-71.574;2022-09-09T03:34:57;14.50;99.90
52791;DHT22;41253;46.856;-71.574;2022-09-09T03:37:23;14.50;99.90
52791;DHT22;41253;46.856;-71.574;2022-09-09T03:39:50;14.50;99.90
52791;DHT22;41253;46.856;-71.574;2022-09-09T03:42:16;14.50;99.90
52791;DHT22;41253;46.856;-71.574;2022-09-09T03:44:46;14.40;99.90
52791;DHT22;41253;46.856;-71.574;2022-09-09T03:47:19;14.40;99.90
52791;DHT22;41253;46.856;-71.574;2022-09-09T03:49:45;14.40;99.90
52791;DHT22;41253;46.856;-71.574;2022-09-09T03:52:12;14.40;99.90
52791;DHT22;41253;46.856;-71.574;2022-09-09T03:54:39;14.30;99.90
52791;DHT22;41253;46.856;-71.574;2022-09-09T03:57:05;14.20;99.90
52791;DHT22;41253;46.856;-71.574;2022-09-09T03:59:32;14.20;99.90
52791;DHT22;41253;46.856;-71.574;2022-09-09T04:01:58;14.20;99.90
52791;DHT22;41253;46.856;-71.574;2022-09-09T04:04:25;14.10;99.90
52791;DHT22;41253;46.856;-71.574;2022-09-09T04:06:55;14.00;99.90
52791;DHT22;41253;46.856;-71.574;2022-09-09T04:09:21;14.00;99.90
52791;DHT22;41253;46.856;-71.574;2022-09-09T04:11:47;14.00;99.90
52791;DHT22;41253;46.856;-71.574;2022-09-09T04:14:15;14.00;99.90
52791;DHT22;41253;46.856;-71.574;2022-09-09T04:16:42;13.90;99.90
52791;DHT22;41253;46.856;-71.574;2022-09-09T04:19:12;13.90;99.90
52791;DHT22;41253;46.856;-71.574;2022-09-09T04:21:40;13.90;99.90
52791;DHT22;41253;46.856;-71.574;2022-09-09T04:24:09;13.90;99.90
52791;DHT22;41253;46.856;-71.574;2022-09-09T04:26:36;13.90;99.90
52791;DHT22;41253;46.856;-71.574;2022-09-09T04:29:04;13.80;99.90
52791;DHT22;41253;46.856;-71.574;2022-09-09T04:31:30;13.80;99.90
52791;DHT22;41253;46.856;-71.574;2022-09-09T04:33:57;13.70;99.90
52791;DHT22;41253;46.856;-71.574;2022-09-09T04:36:23;13.60;99.90
52791;DHT22;41253;46.856;-71.574;2022-09-09T04:38:50;13.70;99.90
52791;DHT22;41253;46.856;-71.574;2022-09-09T04:41:16;13.80;99.90
52791;DHT22;41253;46.856;-71.574;2022-09-09T04:43:43;13.80;99.90
52791;DHT22;41253;46.856;-71.574;2022-09-09T04:46:09;13.80;99.90
52791;DHT22;41253;46.856;-71.574;2022-09-09T04:48:36;13.70;99.90
52791;DHT22;41253;46.856;-71.574;2022-09-09T04:51:04;13.60;99.90
52791;DHT22;41253;46.856;-71.574;2022-09-09T04:53:32;13.70;99.90
52791;DHT22;41253;46.856;-71.574;2022-09-09T04:58:29;13.70;99.90
52791;DHT22;41253;46.856;-71.574;2022-09-09T05:01:03;13.60;99.90
52791;DHT22;41253;46.856;-71.574;2022-09-09T05:03:29;13.60;99.90
52791;DHT22;41253;46.856;-71.574;2022-09-09T05:06:03;13.50;99.90
52791;DHT22;41253;46.856;-71.574;2022-09-09T05:08:30;13.50;99.90
52791;DHT22;41253;46.856;-71.574;2022-09-09T05:10:56;13.50;99.90
52791;DHT22;41253;46.856;-71.574;2022-09-09T05:13:22;13.50;99.90
52791;DHT22;41253;46.856;-71.574;2022-09-09T05:15:55;13.50;99.90
52791;DHT22;41253;46.856;-71.574;2022-09-09T05:18:21;13.30;99.90
52791;DHT22;41253;46.856;-71.574;2022-09-09T05:20:49;13.40;99.90
52791;DHT22;41253;46.856;-71.574;2022-09-09T05:23:16;13.50;99.90
52791;DHT22;41253;46.856;-71.574;2022-09-09T05:25:43;13.60;99.90
52791;DHT22;41253;46.856;-71.574;2022-09-09T05:28:09;13.60;99.90
52791;DHT22;41253;46.856;-71.574;2022-09-09T05:30:37;13.50;99.90
52791;DHT22;41253;46.856;-71.574;2022-09-09T05:33:04;13.50;99.90
52791;DHT22;41253;46.856;-71.574;2022-09-09T05:35:31;13.70;99.90
52791;DHT22;41253;46.856;-71.574;2022-09-09T05:38:00;13.50;99.90
52791;DHT22;41253;46.856;-71.574;2022-09-09T05:40:26;13.50;99.90
52791;DHT22;41253;46.856;-71.574;2022-09-09T05:42:53;13.50;99.90
52791;DHT22;41253;46.856;-71.574;2022-09-09T05:45:19;13.50;99.90
52791;DHT22;41253;46.856;-71.574;2022-09-09T05:47:51;13.40;99.90
52791;DHT22;41253;46.856;-71.574;2022-09-09T05:50:21;13.30;99.90
52791;DHT22;41253;46.856;-71.574;2022-09-09T05:52:48;13.20;99.90
52791;DHT22;41253;46.856;-71.574;2022-09-09T05:55:16;13.20;99.90
52791;DHT22;41253;46.856;-71.574;2022-09-09T05:57:42;13.10;99.90
52791;DHT22;41253;46.856;-71.574;2022-09-09T06:00:08;13.20;99.90
52791;DHT22;41253;46.856;-71.574;2022-09-09T06:02:35;13.20;99.90
52791;DHT22;41253;46.856;-71.574;2022-09-09T06:05:04;13.30;99.90
52791;DHT22;41253;46.856;-71.574;2022-09-09T06:07:31;13.20;99.90
52791;DHT22;41253;46.856;-71.574;2022-09-09T06:09:57;13.30;99.90
52791;DHT22;41253;46.856;-71.574;2022-09-09T06:12:25;13.30;99.90
52791;DHT22;41253;46.856;-71.574;2022-09-09T06:14:52;13.40;99.90
52791;DHT22;41253;46.856;-71.574;2022-09-09T06:17:18;13.40;99.90
52791;DHT22;41253;46.856;-71.574;2022-09-09T06:19:44;13.40;99.90
52791;DHT22;41253;46.856;-71.574;2022-09-09T06:22:11;13.50;99.90
52791;DHT22;41253;46.856;-71.574;2022-09-09T06:24:38;13.60;99.90
52791;DHT22;41253;46.856;-71.574;2022-09-09T06:27:04;13.60;99.90
52791;DHT22;41253;46.856;-71.574;2022-09-09T06:29:31;13.60;99.90
52791;DHT22;41253;46.856;-71.574;2022-09-09T06:31:57;13.60;99.90
52791;DHT22;41253;46.856;-71.574;2022-09-09T06:34:24;13.60;99.90
52791;DHT22;41253;46.856;-71.574;2022-09-09T06:36:50;13.60;99.90
52791;DHT22;41253;46.856;-71.574;2022-09-09T06:39:17;13.70;99.90
52791;DHT22;41253;46.856;-71.574;2022-09-09T06:41:44;13.60;99.90
52791;DHT22;41253;46.856;-71.574;2022-09-09T06:44:10;13.60;99.90
52791;DHT22;41253;46.856;-71.574;2022-09-09T06:46:41;13.60;99.90
52791;DHT22;41253;46.856;-71.574;2022-09-09T06:49:08;13.60;99.90
52791;DHT22;41253;46.856;-71.574;2022-09-09T06:51:36;13.60;99.90
52791;DHT22;41253;46.856;-71.574;2022-09-09T06:54:08;13.60;99.90
52791;DHT22;41253;46.856;-71.574;2022-09-09T06:56:37;13.60;99.90
52791;DHT22;41253;46.856;-71.574;2022-09-09T06:59:07;13.50;99.90
52791;DHT22;41253;46.856;-71.574;2022-09-09T07:01:37;13.50;99.90
52791;DHT22;41253;46.856;-71.574;2022-09-09T07:04:04;13.30;99.90
52791;DHT22;41253;46.856;-71.574;2022-09-09T07:06:36;13.40;99.90
52791;DHT22;41253;46.856;-71.574;2022-09-09T07:09:08;13.30;99.90
52791;DHT22;41253;46.856;-71.574;2022-09-09T07:11:48;13.40;99.90
52791;DHT22;41253;46.856;-71.574;2022-09-09T07:14:15;13.30;99.90
52791;DHT22;41253;46.856;-71.574;2022-09-09T07:16:42;13.30;99.90
52791;DHT22;41253;46.856;-71.574;2022-09-09T07:19:10;13.30;99.90
52791;DHT22;41253;46.856;-71.574;2022-09-09T07:21:37;13.20;99.90
52791;DHT22;41253;46.856;-71.574;2022-09-09T07:24:03;13.10;99.90
52791;DHT22;41253;46.856;-71.574;2022-09-09T07:26:33;13.10;99.90
52791;DHT22;41253;46.856;-71.574;2022-09-09T07:28:59;13.00;99.90
52791;DHT22;41253;46.856;-71.574;2022-09-09T07:31:28;13.00;99.90
52791;DHT22;41253;46.856;-71.574;2022-09-09T07:33:56;13.10;99.90
52791;DHT22;41253;46.856;-71.574;2022-09-09T07:36:41;13.00;99.90
52791;DHT22;41253;46.856;-71.574;2022-09-09T07:39:13;13.00;99.90
52791;DHT22;41253;46.856;-71.574;2022-09-09T07:41:43;13.00;99.90
52791;DHT22;41253;46.856;-71.574;2022-09-09T07:44:13;13.00;99.90
52791;DHT22;41253;46.856;-71.574;2022-09-09T07:46:40;13.00;99.90
52791;DHT22;41253;46.856;-71.574;2022-09-09T07:49:07;12.90;99.90
52791;DHT22;41253;46.856;-71.574;2022-09-09T07:51:36;13.00;99.90
52791;DHT22;41253;46.856;-71.574;2022-09-09T07:54:06;12.90;99.90
52791;DHT22;41253;46.856;-71.574;2022-09-09T07:56:33;12.80;99.90
52791;DHT22;41253;46.856;-71.574;2022-09-09T07:58:59;12.80;99.90
52791;DHT22;41253;46.856;-71.574;2022-09-09T08:01:29;12.80;99.90
52791;DHT22;41253;46.856;-71.574;2022-09-09T08:04:02;12.70;99.90
52791;DHT22;41253;46.856;-71.574;2022-09-09T08:06:37;12.70;99.90
52791;DHT22;41253;46.856;-71.574;2022-09-09T08:09:05;12.60;99.90
52791;DHT22;41253;46.856;-71.574;2022-09-09T08:11:31;12.60;99.90
52791;DHT22;41253;46.856;-71.574;2022-09-09T08:13:59;12.50;99.90
52791;DHT22;41253;46.856;-71.574;2022-09-09T08:16:32;12.50;99.90
52791;DHT22;41253;46.856;-71.574;2022-09-09T08:18:59;12.50;99.90
52791;DHT22;41253;46.856;-71.574;2022-09-09T08:21:28;12.40;99.90
52791;DHT22;41253;46.856;-71.574;2022-09-09T08:23:56;12.40;99.90
52791;DHT22;41253;46.856;-71.574;2022-09-09T08:26:34;12.40;99.90
52791;DHT22;41253;46.856;-71.574;2022-09-09T08:29:03;12.40;99.90
52791;DHT22;41253;46.856;-71.574;2022-09-09T08:31:35;12.40;99.90
52791;DHT22;41253;46.856;-71.574;2022-09-09T08:34:04;12.40;99.90
52791;DHT22;41253;46.856;-71.574;2022-09-09T08:36:34;12.40;99.90
52791;DHT22;41253;46.856;-71.574;2022-09-09T08:39:01;12.40;99.90
52791;DHT22;41253;46.856;-71.574;2022-09-09T08:49:19;12.40;99.90
52791;DHT22;41253;46.856;-71.574;2022-09-09T08:51:50;12.40;99.90
52791;DHT22;41253;46.856;-71.574;2022-09-09T08:54:16;12.40;99.90
52791;DHT22;41253;46.856;-71.574;2022-09-09T08:56:43;12.40;99.90
52791;DHT22;41253;46.856;-71.574;2022-09-09T08:59:13;12.50;99.90
52791;DHT22;41253;46.856;-71.574;2022-09-09T09:02:07;12.50;99.90
52791;DHT22;41253;46.856;-71.574;2022-09-09T09:05:02;12.40;99.90
52791;DHT22;41253;46.856;-71.574;2022-09-09T09:07:44;12.40;99.90
52791;DHT22;41253;46.856;-71.574;2022-09-09T09:12:58;12.30;99.90
52791;DHT22;41253;46.856;-71.574;2022-09-09T09:15:33;12.40;99.90
52791;DHT22;41253;46.856;-71.574;2022-09-09T09:18:03;12.30;99.90
52791;DHT22;41253;46.856;-71.574;2022-09-09T09:23:19;12.30;99.90
52791;DHT22;41253;46.856;-71.574;2022-09-09T09:25:47;12.20;99.90
52791;DHT22;41253;46.856;-71.574;2022-09-09T09:28:23;12.10;99.90
52791;DHT22;41253;46.856;-71.574;2022-09-09T09:31:11;12.10;99.90
52791;DHT22;41253;46.856;-71.574;2022-09-09T09:36:07;12.20;99.90
52791;DHT22;41253;46.856;-71.574;2022-09-09T09:38:35;12.20;99.90
52791;DHT22;41253;46.856;-71.574;2022-09-09T09:41:02;12.30;99.90
52791;DHT22;41253;46.856;-71.574;2022-09-09T09:43:30;12.30;99.90
52791;DHT22;41253;46.856;-71.574;2022-09-09T09:45:58;12.20;99.90
52791;DHT22;41253;46.856;-71.574;2022-09-09T09:48:26;12.20;99.90
52791;DHT22;41253;46.856;-71.574;2022-09-09T09:51:01;12.10;99.90
52791;DHT22;41253;46.856;-71.574;2022-09-09T09:53:33;12.00;99.90
52791;DHT22;41253;46.856;-71.574;2022-09-09T09:58:53;11.90;99.90
52791;DHT22;41253;46.856;-71.574;2022-09-09T10:01:25;11.90;99.90
52791;DHT22;41253;46.856;-71.574;2022-09-09T10:03:58;11.90;99.90
52791;DHT22;41253;46.856;-71.574;2022-09-09T10:06:33;11.90;99.90
52791;DHT22;41253;46.856;-71.574;2022-09-09T10:09:02;11.90;99.90
52791;DHT22;41253;46.856;-71.574;2022-09-09T10:11:38;12.00;99.90
52791;DHT22;41253;46.856;-71.574;2022-09-09T10:14:24;12.10;99.90
52791;DHT22;41253;46.856;-71.574;2022-09-09T10:17:13;12.10;99.90
52791;DHT22;41253;46.856;-71.574;2022-09-09T10:20:29;12.00;99.90
52791;DHT22;41253;46.856;-71.574;2022-09-09T10:22:36;12.00;99.90
52791;DHT22;41253;46.856;-71.574;2022-09-09T10:28:17;12.00;99.90
52791;DHT22;41253;46.856;-71.574;2022-09-09T10:33:56;12.00;99.90
52791;DHT22;41253;46.856;-71.574;2022-09-09T10:36:24;12.00;99.90
52791;DHT22;41253;46.856;-71.574;2022-09-09T10:39:03;12.00;99.90
52791;DHT22;41253;46.856;-71.574;2022-09-09T10:52:35;12.20;99.90
52791;DHT22;41253;46.856;-71.574;2022-09-09T11:00:45;12.20;99.90
52791;DHT22;41253;46.856;-71.574;2022-09-09T11:03:30;12.20;99.90
52791;DHT22;41253;46.856;-71.574;2022-09-09T11:06:07;12.20;99.90
52791;DHT22;41253;46.856;-71.574;2022-09-09T11:08:38;12.30;99.90
52791;DHT22;41253;46.856;-71.574;2022-09-09T11:14:12;12.40;99.90
52791;DHT22;41253;46.856;-71.574;2022-09-09T11:16:56;12.40;99.90
52791;DHT22;41253;46.856;-71.574;2022-09-09T11:21:50;12.50;99.90
52791;DHT22;41253;46.856;-71.574;2022-09-09T11:26:55;12.60;99.90
52791;DHT22;41253;46.856;-71.574;2022-09-09T11:38:01;12.90;99.90
52791;DHT22;41253;46.856;-71.574;2022-09-09T11:40:32;13.00;99.90
52791;DHT22;41253;46.856;-71.574;2022-09-09T11:43:17;13.10;99.90
52791;DHT22;41253;46.856;-71.574;2022-09-09T11:45:53;13.30;99.90
52791;DHT22;41253;46.856;-71.574;2022-09-09T11:48:37;13.30;99.90
52791;DHT22;41253;46.856;-71.574;2022-09-09T11:53:50;13.60;99.90
52791;DHT22;41253;46.856;-71.574;2022-09-09T11:56:43;13.50;99.90
52791;DHT22;41253;46.856;-71.574;2022-09-09T11:59:23;13.60;99.90
52791;DHT22;41253;46.856;-71.574;2022-09-09T12:02:01;13.80;99.90
52791;DHT22;41253;46.856;-71.574;2022-09-09T12:04:35;13.90;99.90
52791;DHT22;41253;46.856;-71.574;2022-09-09T12:09:31;14.20;99.90
52791;DHT22;41253;46.856;-71.574;2022-09-09T12:14:42;14.10;99.90
52791;DHT22;41253;46.856;-71.574;2022-09-09T12:19:41;13.80;99.90
52791;DHT22;41253;46.856;-71.574;2022-09-09T12:27:46;13.80;99.90
52791;DHT22;41253;46.856;-71.574;2022-09-09T12:30:17;13.90;99.90
52791;DHT22;41253;46.856;-71.574;2022-09-09T12:32:44;13.70;99.90
52791;DHT22;41253;46.856;-71.574;2022-09-09T12:35:19;13.70;99.90
52791;DHT22;41253;46.856;-71.574;2022-09-09T12:37:54;13.70;99.90
52791;DHT22;41253;46.856;-71.574;2022-09-09T12:40:32;13.80;99.90
52791;DHT22;41253;46.856;-71.574;2022-09-09T12:43:02;13.90;99.90
52791;DHT22;41253;46.856;-71.574;2022-09-09T12:45:33;14.00;99.90
52791;DHT22;41253;46.856;-71.574;2022-09-09T12:48:06;13.90;99.90
52791;DHT22;41253;46.856;-71.574;2022-09-09T12:50:43;14.00;99.90
52791;DHT22;41253;46.856;-71.574;2022-09-09T12:56:28;14.40;99.90
52791;DHT22;41253;46.856;-71.574;2022-09-09T12:58:50;14.40;99.90
52791;DHT22;41253;46.856;-71.574;2022-09-09T13:01:27;14.50;99.90
52791;DHT22;41253;46.856;-71.574;2022-09-09T13:03:55;14.70;99.90
52791;DHT22;41253;46.856;-71.574;2022-09-09T13:06:25;15.00;99.90
52791;DHT22;41253;46.856;-71.574;2022-09-09T13:08:53;15.00;99.90
52791;DHT22;41253;46.856;-71.574;2022-09-09T13:11:26;15.10;99.90
52791;DHT22;41253;46.856;-71.574;2022-09-09T13:13:56;15.40;99.90
52791;DHT22;41253;46.856;-71.574;2022-09-09T13:16:29;15.70;99.90
52791;DHT22;41253;46.856;-71.574;2022-09-09T13:19:01;15.80;99.90
52791;DHT22;41253;46.856;-71.574;2022-09-09T13:21:35;15.80;99.90
52791;DHT22;41253;46.856;-71.574;2022-09-09T13:24:05;16.10;99.90
52791;DHT22;41253;46.856;-71.574;2022-09-09T13:26:34;16.50;99.90
52791;DHT22;41253;46.856;-71.574;2022-09-09T13:29:19;16.70;99.90
52791;DHT22;41253;46.856;-71.574;2022-09-09T13:31:46;16.60;99.90
52791;DHT22;41253;46.856;-71.574;2022-09-09T13:34:33;17.20;99.90
52791;DHT22;41253;46.856;-71.574;2022-09-09T13:37:22;17.60;99.90
52791;DHT22;41253;46.856;-71.574;2022-09-09T13:39:53;18.00;99.90
52791;DHT22;41253;46.856;-71.574;2022-09-09T13:42:28;18.40;99.90
52791;DHT22;41253;46.856;-71.574;2022-09-09T13:44:56;19.00;99.90
52791;DHT22;41253;46.856;-71.574;2022-09-09T13:47:33;18.90;99.90
52791;DHT22;41253;46.856;-71.574;2022-09-09T13:50:24;19.30;99.90
52791;DHT22;41253;46.856;-71.574;2022-09-09T13:52:52;19.40;99.90
52791;DHT22;41253;46.856;-71.574;2022-09-09T13:55:21;19.20;99.90
52791;DHT22;41253;46.856;-71.574;2022-09-09T13:58:17;19.20;99.90
52791;DHT22;41253;46.856;-71.574;2022-09-09T14:00:45;19.60;99.90
52791;DHT22;41253;46.856;-71.574;2022-09-09T14:03:13;19.90;99.90
52791;DHT22;41253;46.856;-71.574;2022-09-09T14:05:39;20.10;99.90
52791;DHT22;41253;46.856;-71.574;2022-09-09T14:08:07;20.00;99.90
52791;DHT22;41253;46.856;-71.574;2022-09-09T14:10:35;20.30;99.90
52791;DHT22;41253;46.856;-71.574;2022-09-09T14:13:03;20.30;99.90
52791;DHT22;41253;46.856;-71.574;2022-09-09T14:15:29;20.70;99.90
52791;DHT22;41253;46.856;-71.574;2022-09-09T14:17:56;20.80;99.90
52791;DHT22;41253;46.856;-71.574;2022-09-09T14:20:24;21.00;99.90
52791;DHT22;41253;46.856;-71.574;2022-09-09T14:22:51;21.30;99.90
52791;DHT22;41253;46.856;-71.574;2022-09-09T14:25:17;21.30;99.90
52791;DHT22;41253;46.856;-71.574;2022-09-09T14:27:44;21.60;99.90
52791;DHT22;41253;46.856;-71.574;2022-09-09T14:30:11;21.60;99.90
52791;DHT22;41253;46.856;-71.574;2022-09-09T14:32:38;21.60;99.90
52791;DHT22;41253;46.856;-71.574;2022-09-09T14:35:04;21.30;99.90
52791;DHT22;41253;46.856;-71.574;2022-09-09T14:37:31;21.40;99.90
52791;DHT22;41253;46.856;-71.574;2022-09-09T14:39:58;21.20;99.90
52791;DHT22;41253;46.856;-71.574;2022-09-09T14:42:24;21.40;99.90
52791;DHT22;41253;46.856;-71.574;2022-09-09T14:44:50;21.10;99.90
52791;DHT22;41253;46.856;-71.574;2022-09-09T14:47:16;21.10;99.90
52791;DHT22;41253;46.856;-71.574;2022-09-09T14:49:43;21.20;99.90
52791;DHT22;41253;46.856;-71.574;2022-09-09T14:52:11;21.70;99.90
52791;DHT22;41253;46.856;-71.574;2022-09-09T14:54:38;21.70;99.90
52791;DHT22;41253;46.856;-71.574;2022-09-09T14:57:05;21.90;99.90
52791;DHT22;41253;46.856;-71.574;2022-09-09T14:59:31;22.30;99.90
52791;DHT22;41253;46.856;-71.574;2022-09-09T15:01:58;22.10;99.90
52791;DHT22;41253;46.856;-71.574;2022-09-09T15:04:26;22.00;99.90
52791;DHT22;41253;46.856;-71.574;2022-09-09T15:06:53;22.20;99.90
52791;DHT22;41253;46.856;-71.574;2022-09-09T15:09:19;22.00;99.90
52791;DHT22;41253;46.856;-71.574;2022-09-09T15:11:46;22.00;99.90
52791;DHT22;41253;46.856;-71.574;2022-09-09T15:14:13;22.20;99.90
52791;DHT22;41253;46.856;-71.574;2022-09-09T15:16:40;22.50;99.90
52791;DHT22;41253;46.856;-71.574;2022-09-09T15:19:06;22.40;99.90
52791;DHT22;41253;46.856;-71.574;2022-09-09T15:21:35;22.50;99.90
52791;DHT22;41253;46.856;-71.574;2022-09-09T15:24:03;23.20;99.90
52791;DHT22;41253;46.856;-71.574;2022-09-09T15:26:30;23.10;99.90
52791;DHT22;41253;46.856;-71.574;2022-09-09T15:28:57;22.90;99.90
52791;DHT22;41253;46.856;-71.574;2022-09-09T15:31:27;22.60;99.90
52791;DHT22;41253;46.856;-71.574;2022-09-09T15:34:04;23.00;99.90
52791;DHT22;41253;46.856;-71.574;2022-09-09T15:36:42;23.30;99.90
52791;DHT22;41253;46.856;-71.574;2022-09-09T15:39:12;23.50;99.90
52791;DHT22;41253;46.856;-71.574;2022-09-09T15:41:39;23.70;99.90
52791;DHT22;41253;46.856;-71.574;2022-09-09T15:44:05;24.00;99.90
52791;DHT22;41253;46.856;-71.574;2022-09-09T15:49:12;23.50;99.90
52791;DHT22;41253;46.856;-71.574;2022-09-09T15:51:40;23.60;99.90
52791;DHT22;41253;46.856;-71.574;2022-09-09T15:54:10;23.80;99.90
52791;DHT22;41253;46.856;-71.574;2022-09-09T15:56:38;23.90;99.90
52791;DHT22;41253;46.856;-71.574;2022-09-09T15:59:04;23.90;99.90
52791;DHT22;41253;46.856;-71.574;2022-09-09T16:01:31;23.80;99.90
52791;DHT22;41253;46.856;-71.574;2022-09-09T16:03:58;23.60;99.90
52791;DHT22;41253;46.856;-71.574;2022-09-09T16:06:26;23.70;99.90
52791;DHT22;41253;46.856;-71.574;2022-09-09T16:08:56;24.10;99.90
52791;DHT22;41253;46.856;-71.574;2022-09-09T16:11:25;24.40;99.90
52791;DHT22;41253;46.856;-71.574;2022-09-09T16:13:53;23.90;99.90
52791;DHT22;41253;46.856;-71.574;2022-09-09T16:16:22;23.50;99.90
52791;DHT22;41253;46.856;-71.574;2022-09-09T16:18:52;23.40;99.90
52791;DHT22;41253;46.856;-71.574;2022-09-09T16:21:22;23.60;99.90
52791;DHT22;41253;46.856;-71.574;2022-09-09T16:23:51;24.00;99.90
52791;DHT22;41253;46.856;-71.574;2022-09-09T16:26:19;24.20;99.90
52791;DHT22;41253;46.856;-71.574;2022-09-09T16:28:46;24.20;99.90
52791;DHT22;41253;46.856;-71.574;2022-09-09T16:31:18;24.30;99.90
52791;DHT22;41253;46.856;-71.574;2022-09-09T16:33:45;24.50;99.90
52791;DHT22;41253;46.856;-71.574;2022-09-09T16:36:15;25.10;99.90
52791;DHT22;41253;46.856;-71.574;2022-09-09T16:38:42;25.20;99.90
52791;DHT22;41253;46.856;-71.574;2022-09-09T16:41:12;25.10;99.90
52791;DHT22;41253;46.856;-71.574;2022-09-09T16:43:40;24.30;99.90
52791;DHT22;41253;46.856;-71.574;2022-09-09T16:46:16;24.30;99.90
52791;DHT22;41253;46.856;-71.574;2022-09-09T16:48:45;24.20;99.90
52791;DHT22;41253;46.856;-71.574;2022-09-09T16:53:43;24.20;99.90
52791;DHT22;41253;46.856;-71.574;2022-09-09T16:56:15;24.00;99.90
52791;DHT22;41253;46.856;-71.574;2022-09-09T16:58:42;24.20;99.90
52791;DHT22;41253;46.856;-71.574;2022-09-09T17:01:10;24.40;99.90
52791;DHT22;41253;46.856;-71.574;2022-09-09T17:03:40;24.30;99.90
52791;DHT22;41253;46.856;-71.574;2022-09-09T17:06:14;24.20;99.90
52791;DHT22;41253;46.856;-71.574;2022-09-09T17:08:41;24.00;99.90
52791;DHT22;41253;46.856;-71.574;2022-09-09T17:11:13;24.10;99.90
52791;DHT22;41253;46.856;-71.574;2022-09-09T17:13:41;24.70;99.90
52791;DHT22;41253;46.856;-71.574;2022-09-09T17:16:08;25.00;99.90
52791;DHT22;41253;46.856;-71.574;2022-09-09T17:18:35;25.40;99.90
52791;DHT22;41253;46.856;-71.574;2022-09-09T17:21:07;25.50;99.90